Boultons Beach, New York
Current Conditions -  °F | °C
As of 12:56 PM on Friday 31 Oct 2014 (Local Time) from KART Reporting Station
Overcast Overcast  
Wind Chill: 44°   Ceiling: 6000
Heat Index: 48°   Visibility: 10mi
Dew Point: 33°   Wind: 8mph
Humidity: 56%   Direction: 30°NNE
Pressure: 30"   Gusts: NA
Location:  43.9321°N, 76.0832°W
Report Text: KART 311656Z AUTO 03007KT 10SM OVC060 09/01 A3000 RMK AO2 SLP160 T00890006
Loading
Personal Weather Stations






























Interactive Weather Map
Tropical Storm Tracking
New forecast layout! Learn more

10-Day Weather Forecast

Advertisements
Track Severe Weather on mobile